Time;durP1;ratioP1;P1;durP2;ratioP2;P2;SDS_P1;SDS_P2;PMS_P1;PMS_P2;Temp;Humidity;BMP_temperature;BMP_pressure;BME280_temperature;BME280_humidity;BME280_pressure;Samples;Min_cycle;Max_cycle;Signal;HPM_P1;HPM_P2
2022/01/27 00:02:03;;;;;;;;;81.60;72.60;16.10;99.90;;;;;;5020435;28;8767;-68
2022/01/27 00:04:37;;;;;;;;;89.00;76.60;16.10;99.90;;;;;;5019901;28;8737;-68
2022/01/27 00:07:04;;;;;;;;;87.00;72.40;16.10;99.90;;;;;;5034527;28;8770;-69
2022/01/27 00:10:03;;;;;;;;;83.80;72.00;16.10;99.90;;;;;;5039643;28;8774;-68
2022/01/27 00:12:29;;;;;;;;;84.20;73.00;16.10;99.90;;;;;;5038406;28;8758;-68
2022/01/27 00:15:08;;;;;;;;;82.40;71.60;16.00;99.90;;;;;;5039308;28;8758;-69
2022/01/27 00:17:40;;;;;;;;;84.60;69.80;16.00;99.90;;;;;;5039576;28;9468;-68
2022/01/27 00:20:07;;;;;;;;;80.20;69.20;16.00;99.90;;;;;;5039837;28;8774;-68
2022/01/27 00:22:34;;;;;;;;;87.60;71.60;16.00;99.90;;;;;;5012061;28;8979;-68
2022/01/27 00:25:05;;;;;;;;;85.60;74.80;16.00;99.90;;;;;;5034168;28;8954;-68
2022/01/27 00:27:32;;;;;;;;;92.40;78.40;16.00;99.90;;;;;;5019458;28;8801;-68
2022/01/27 00:30:03;;;;;;;;;100.60;88.60;16.10;99.90;;;;;;5019281;28;8779;-68
2022/01/27 00:32:31;;;;;;;;;108.00;100.20;16.20;99.90;;;;;;5019155;28;8816;-68
2022/01/27 00:34:58;;;;;;;;;95.40;85.20;16.30;99.90;;;;;;5019025;28;8764;-68
2022/01/27 00:37:26;;;;;;;;;95.60;84.00;16.40;99.90;;;;;;5036068;28;8797;-67
2022/01/27 00:39:52;;;;;;;;;111.40;96.60;16.50;99.90;;;;;;5056460;28;9508;-69
2022/01/27 00:42:19;;;;;;;;;115.00;97.40;16.50;99.90;;;;;;5052538;28;8828;-67
2022/01/27 00:44:46;;;;;;;;;93.00;85.60;16.50;99.90;;;;;;5037054;28;8769;-68
2022/01/27 00:47:13;;;;;;;;;91.80;87.00;16.50;99.90;;;;;;5037937;28;8962;-68
2022/01/27 00:49:39;;;;;;;;;110.20;96.00;16.60;99.90;;;;;;5036298;28;8738;-69
2022/01/27 00:52:15;;;;;;;;;115.40;98.80;16.70;99.90;;;;;;5023913;28;8764;-68
2022/01/27 00:54:45;;;;;;;;;117.80;102.00;16.70;99.90;;;;;;5009042;28;8759;-69
2022/01/27 00:57:35;;;;;;;;;124.20;108.80;16.70;99.90;;;;;;5016409;28;8836;-69
2022/01/27 01:00:03;;;;;;;;;120.80;108.20;16.70;99.90;;;;;;5017906;28;8784;-72
2022/01/27 01:02:54;;;;;;;;;123.40;109.40;16.70;99.90;;;;;;5017717;28;8764;-72
2022/01/27 01:05:42;;;;;;;;;117.60;105.20;16.70;99.90;;;;;;5018284;28;8763;-69
2022/01/27 01:15:54;;;;;;;;;99.80;86.40;17.10;99.90;;;;;;5038383;28;8837;-69
2022/01/27 01:29:49;;;;;;;;;78.00;62.40;17.50;99.90;;;;;;5018038;28;8773;-70
2022/01/27 01:32:25;;;;;;;;;77.00;60.60;17.60;99.90;;;;;;5017679;28;8775;-70
2022/01/27 01:34:53;;;;;;;;;79.40;66.00;17.80;99.90;;;;;;5016564;28;8895;-70
2022/01/27 01:37:20;;;;;;;;;74.40;59.80;17.90;99.90;;;;;;5032905;28;9738;-69
2022/01/27 01:39:47;;;;;;;;;73.20;61.20;17.90;99.90;;;;;;5020380;28;9496;-69
2022/01/27 01:42:13;;;;;;;;;69.20;55.00;18.00;99.90;;;;;;5037416;28;8811;-69
2022/01/27 01:44:41;;;;;;;;;73.00;57.00;18.00;99.90;;;;;;5036133;28;8765;-72
2022/01/27 01:47:08;;;;;;;;;69.60;54.20;18.10;99.90;;;;;;5036184;28;8757;-71
2022/01/27 01:49:34;;;;;;;;;75.00;57.80;18.10;99.90;;;;;;5018665;28;8762;-76
2022/01/27 01:52:06;;;;;;;;;64.80;50.60;18.20;99.90;;;;;;5017026;28;8916;-73
2022/01/27 01:54:32;;;;;;;;;61.80;50.20;18.30;99.90;;;;;;5016634;28;8772;-73
2022/01/27 01:56:59;;;;;;;;;70.20;53.80;18.30;99.90;;;;;;5016484;28;8866;-71
2022/01/27 01:59:26;;;;;;;;;68.60;53.00;18.30;99.90;;;;;;5017235;28;8769;-72
2022/01/27 02:01:53;;;;;;;;;66.00;53.00;18.50;99.90;;;;;;5017734;28;9196;-72
2022/01/27 02:04:19;;;;;;;;;68.60;53.60;18.60;99.90;;;;;;5033045;28;9483;-71
2022/01/27 02:06:54;;;;;;;;;58.80;47.80;18.60;99.90;;;;;;5029253;28;8832;-73
2022/01/27 02:20:11;;;;;;;;;62.40;49.20;19.00;99.90;;;;;;5037092;28;8762;-72
2022/01/27 02:22:41;;;;;;;;;65.00;49.40;19.10;99.90;;;;;;5036699;28;8790;-73
2022/01/27 02:25:09;;;;;;;;;56.60;44.60;19.20;99.90;;;;;;5037512;28;8730;-73
2022/01/27 02:27:35;;;;;;;;;63.60;50.60;19.10;99.90;;;;;;5036299;28;8778;-72
2022/01/27 02:30:02;;;;;;;;;64.80;50.40;19.20;99.90;;;;;;5036524;28;8966;-71
2022/01/27 02:32:29;;;;;;;;;68.20;53.00;19.40;99.90;;;;;;5036188;28;8789;-71
2022/01/27 02:34:56;;;;;;;;;71.00;54.00;19.50;99.90;;;;;;5036167;28;8788;-72
2022/01/27 02:37:22;;;;;;;;;69.40;53.40;19.50;99.90;;;;;;5018476;28;8907;-72
2022/01/27 02:39:49;;;;;;;;;68.20;52.80;19.70;99.90;;;;;;5016359;28;8771;-72
2022/01/27 02:42:17;;;;;;;;;68.00;53.80;19.80;99.90;;;;;;5016187;28;8860;-71
2022/01/27 02:44:53;;;;;;;;;67.20;52.80;19.80;99.90;;;;;;5015448;28;8772;-70
2022/01/27 02:47:20;;;;;;;;;65.80;51.40;19.80;99.90;;;;;;5016381;28;8819;-71
2022/01/27 02:49:47;;;;;;;;;67.00;51.00;20.00;99.90;;;;;;5014982;28;8791;-73
2022/01/27 02:52:14;;;;;;;;;67.75;51.75;20.00;99.90;;;;;;5030925;28;8798;-72
2022/01/27 02:54:41;;;;;;;;;67.80;53.20;20.10;99.90;;;;;;5032958;28;8932;-71
2022/01/27 02:57:07;;;;;;;;;58.25;45.75;20.20;99.90;;;;;;5035741;28;8828;-68
2022/01/27 02:59:34;;;;;;;;;59.50;46.50;20.40;99.90;;;;;;5034988;28;9337;-68
2022/01/27 03:02:02;;;;;;;;;63.00;49.20;20.50;99.90;;;;;;5036014;28;8742;-66
2022/01/27 03:04:30;;;;;;;;;58.50;44.75;20.60;99.90;;;;;;5034873;28;8861;-68
2022/01/27 03:06:57;;;;;;;;;55.00;44.25;20.60;99.90;;;;;;5035114;28;8860;-67
2022/01/27 03:09:23;;;;;;;;;50.75;38.25;20.70;99.90;;;;;;5036108;28;8730;-66
2022/01/27 03:11:58;;;;;;;;;55.50;44.25;20.80;99.90;;;;;;5035739;28;8754;-67
2022/01/27 03:14:25;;;;;;;;;58.25;46.25;20.90;99.90;;;;;;5034491;28;8758;-67
2022/01/27 03:16:59;;;;;;;;;55.50;43.50;21.00;99.90;;;;;;5035903;28;8778;-69
2022/01/27 03:19:29;;;;;;;;;56.00;43.50;21.10;99.90;;;;;;5036023;28;8762;-69
2022/01/27 03:21:56;;;;;;;;;56.00;46.75;21.20;99.90;;;;;;5041939;28;9577;-71
2022/01/27 03:24:23;;;;;;;;;57.00;43.25;21.30;99.90;;;;;;5036130;28;8730;-72
2022/01/27 03:26:51;;;;;;;;;58.50;46.25;21.40;99.90;;;;;;5022965;28;8762;-73
2022/01/27 03:29:18;;;;;;;;;55.75;44.50;21.50;99.90;;;;;;5022485;28;8896;-71
2022/01/27 03:31:45;;;;;;;;;53.25;43.75;21.70;99.90;;;;;;5040234;28;8817;-73
2022/01/27 03:34:12;;;;;;;;;57.00;44.50;21.80;99.90;;;;;;5038335;28;8802;-73
2022/01/27 03:36:39;;;;;;;;;55.25;42.00;21.90;99.90;;;;;;5028530;28;8744;-71
2022/01/27 03:39:07;;;;;;;;;55.75;43.50;22.00;99.90;;;;;;5019152;28;8784;-73
2022/01/27 03:41:36;;;;;;;;;56.25;44.75;22.10;99.90;;;;;;5020215;28;9421;-70
2022/01/27 03:44:03;;;;;;;;;57.00;46.50;22.10;99.90;;;;;;5020237;28;8783;-70
2022/01/27 03:46:30;;;;;;;;;56.00;43.50;22.20;99.90;;;;;;5002685;28;8745;-72
2022/01/27 03:48:57;;;;;;;;;55.25;44.00;22.20;99.90;;;;;;5020069;28;8729;-71
2022/01/27 03:51:24;;;;;;;;;56.75;43.00;22.30;99.90;;;;;;5028363;28;8735;-72
2022/01/27 03:53:53;;;;;;;;;50.25;41.50;22.50;99.90;;;;;;5018696;28;8750;-73
2022/01/27 03:56:20;;;;;;;;;40.00;35.25;22.70;99.90;;;;;;5038675;28;8750;-72
2022/01/27 03:58:46;;;;;;;;;48.50;36.00;22.70;99.90;;;;;;5038751;28;8770;-71
2022/01/27 04:01:13;;;;;;;;;53.00;41.00;22.80;99.90;;;;;;5039892;28;8869;-74
2022/01/27 04:03:41;;;;;;;;;46.50;39.25;23.00;99.90;;;;;;5039443;28;8758;-70
2022/01/27 04:06:09;;;;;;;;;49.50;40.25;23.10;99.90;;;;;;5032884;28;8753;-74
2022/01/27 04:08:37;;;;;;;;;45.25;38.50;23.20;99.90;;;;;;5017889;28;8766;-74
2022/01/27 04:11:07;;;;;;;;;45.00;37.75;23.30;99.90;;;;;;5019955;28;8761;-72
2022/01/27 04:13:35;;;;;;;;;51.25;39.00;23.40;99.90;;;;;;5018112;28;8788;-72
2022/01/27 04:16:02;;;;;;;;;37.75;33.50;23.50;99.90;;;;;;5020596;28;8848;-73
2022/01/27 04:18:31;;;;;;;;;37.25;33.00;23.50;99.90;;;;;;5019246;28;8775;-72
2022/01/27 04:20:58;;;;;;;;;40.00;33.25;23.70;99.90;;;;;;5024811;28;8738;-70
2022/01/27 04:23:25;;;;;;;;;26.50;25.25;23.80;99.90;;;;;;5039044;28;8735;-71
2022/01/27 04:25:52;;;;;;;;;33.25;31.50;23.90;98.50;;;;;;5037953;28;8726;-67
2022/01/27 04:28:25;;;;;;;;;32.00;27.75;24.10;98.50;;;;;;5021727;28;8916;-65
2022/01/27 04:30:54;;;;;;;;;28.25;27.75;24.20;97.10;;;;;;5039580;28;8730;-65
2022/01/27 04:33:27;;;;;;;;;29.25;24.25;24.20;96.10;;;;;;5066999;22;8899;-91
2022/01/27 04:35:57;;;;;;;;;28.25;25.25;24.20;96.70;;;;;;5026508;28;8726;-91
2022/01/27 04:49:04;;;;;;;;;26.25;23.25;24.60;94.00;;;;;;5056993;28;8863;-93
2022/01/27 04:51:33;;;;;;;;;27.25;27.25;24.60;93.60;;;;;;5060942;28;8758;-91
2022/01/27 04:56:32;;;;;;;;;27.00;24.75;24.70;93.60;;;;;;5023404;28;8776;-94
2022/01/27 04:59:04;;;;;;;;;26.00;23.25;24.90;94.40;;;;;;5008793;28;8992;-96
2022/01/27 05:01:37;;;;;;;;;29.75;25.25;25.00;92.30;;;;;;5009500;28;8749;-95
2022/01/27 05:04:10;;;;;;;;;29.50;26.75;24.90;92.00;;;;;;5010066;28;8747;-91
2022/01/27 05:06:36;;;;;;;;;31.25;23.50;24.90;92.90;;;;;;5006817;28;8812;-93
2022/01/27 05:09:04;;;;;;;;;32.25;28.00;25.20;91.80;;;;;;5007595;28;8764;-95
2022/01/27 05:11:56;;;;;;;;;32.75;27.25;25.30;91.60;;;;;;5009338;28;8779;-92
2022/01/27 05:14:26;;;;;;;;;30.25;26.25;25.70;91.70;;;;;;5023507;28;8764;-92
2022/01/27 05:16:53;;;;;;;;;28.40;25.60;26.30;91.40;;;;;;5007638;28;8768;-92
2022/01/27 05:19:29;;;;;;;;;25.50;25.50;26.70;88.80;;;;;;5007137;28;8737;-94
2022/01/27 05:21:57;;;;;;;;;29.75;25.75;26.40;88.10;;;;;;5010902;28;9570;-95
2022/01/27 05:24:24;;;;;;;;;34.50;31.75;26.10;90.50;;;;;;5005407;28;8787;-93
2022/01/27 05:26:51;;;;;;;;;28.25;26.25;26.40;90.50;;;;;;5006191;28;8764;-95
2022/01/27 05:29:17;;;;;;;;;31.75;29.25;26.70;89.40;;;;;;5007618;28;8849;-95
2022/01/27 05:31:44;;;;;;;;;31.50;28.50;26.70;88.80;;;;;;5007998;28;8935;-93
2022/01/27 05:34:20;;;;;;;;;33.50;29.75;26.50;89.60;;;;;;5008966;28;8772;-95
2022/01/27 05:36:47;;;;;;;;;39.00;30.00;26.80;88.30;;;;;;5007955;28;8841;-92
2022/01/27 05:39:13;;;;;;;;;33.00;25.25;26.80;88.30;;;;;;5006555;28;9409;-92
2022/01/27 05:41:42;;;;;;;;;29.50;26.50;27.10;85.20;;;;;;5022392;28;8764;-91
2022/01/27 05:44:09;;;;;;;;;28.75;26.00;27.40;84.60;;;;;;5006783;28;8772;-93
2022/01/27 05:46:36;;;;;;;;;30.25;25.50;27.30;83.30;;;;;;5006529;28;8744;-93
2022/01/27 05:49:02;;;;;;;;;27.50;25.00;27.30;83.50;;;;;;5006938;28;8748;-92
2022/01/27 05:51:29;;;;;;;;;31.25;26.50;27.30;84.40;;;;;;5007311;28;8724;-88
2022/01/27 05:53:56;;;;;;;;;29.00;28.25;27.50;84.20;;;;;;5022588;28;8737;-93
2022/01/27 05:56:23;;;;;;;;;30.25;28.25;27.40;83.30;;;;;;5000776;28;8812;-91
2022/01/27 05:58:50;;;;;;;;;26.50;23.50;27.90;84.80;;;;;;5007461;28;8821;-92
2022/01/27 06:01:17;;;;;;;;;34.25;28.25;28.20;81.70;;;;;;5006823;28;8752;-90
2022/01/27 06:03:44;;;;;;;;;33.75;29.00;28.20;81.90;;;;;;5022582;28;8798;-94
2022/01/27 06:06:10;;;;;;;;;27.75;24.50;28.10;82.00;;;;;;5022427;28;8749;-96
2022/01/27 06:08:37;;;;;;;;;26.50;20.25;27.90;81.60;;;;;;5000125;28;8780;-93
2022/01/27 06:11:04;;;;;;;;;32.75;26.75;27.70;83.20;;;;;;5005848;28;8772;-91
2022/01/27 06:13:31;;;;;;;;;32.50;26.75;27.60;83.50;;;;;;5003659;28;8773;-91
2022/01/27 06:15:57;;;;;;;;;25.75;25.00;27.60;82.20;;;;;;5007044;28;8820;-89
2022/01/27 06:18:24;;;;;;;;;22.00;20.75;27.60;81.10;;;;;;5022174;28;8796;-89
2022/01/27 06:20:51;;;;;;;;;26.00;23.50;27.60;80.10;;;;;;5006287;28;8796;-90
2022/01/27 06:23:18;;;;;;;;;26.00;23.75;27.80;79.70;;;;;;5021345;28;8811;-92
2022/01/27 06:25:45;;;;;;;;;22.75;22.00;27.70;81.70;;;;;;5008790;28;8808;-91
2022/01/27 06:28:12;;;;;;;;;21.50;20.75;27.90;80.50;;;;;;5009130;28;8803;-92
2022/01/27 06:30:39;;;;;;;;;21.00;16.60;28.00;79.40;;;;;;5038793;28;8792;-92
2022/01/27 06:33:06;;;;;;;;;18.00;15.50;28.10;74.40;;;;;;5005614;28;9480;-89
2022/01/27 06:35:33;;;;;;;;;19.50;15.50;28.00;74.10;;;;;;5024017;28;8909;-90
2022/01/27 06:38:00;;;;;;;;;18.25;17.00;28.10;75.30;;;;;;5057032;28;8770;-87
2022/01/27 06:40:27;;;;;;;;;19.25;15.00;28.20;73.40;;;;;;5041227;28;8762;-92
2022/01/27 06:42:54;;;;;;;;;17.25;16.75;28.30;73.20;;;;;;5058108;28;8758;-90
2022/01/27 06:45:22;;;;;;;;;16.00;16.00;28.40;74.10;;;;;;5058380;28;8788;-88
2022/01/27 06:47:51;;;;;;;;;20.75;16.00;28.40;71.90;;;;;;5041290;28;8753;-87
2022/01/27 06:50:18;;;;;;;;;17.25;16.00;28.40;73.00;;;;;;5057252;28;8805;-90
2022/01/27 06:52:44;;;;;;;;;18.00;16.00;28.50;72.50;;;;;;5036480;28;8811;-93
2022/01/27 06:55:12;;;;;;;;;20.25;17.75;28.50;70.70;;;;;;5021403;28;8752;-91
2022/01/27 06:57:39;;;;;;;;;15.25;14.50;28.60;71.50;;;;;;5021847;28;8784;-90
2022/01/27 07:00:10;;;;;;;;;15.75;15.00;28.70;71.10;;;;;;5022071;28;8780;-89
2022/01/27 07:02:37;;;;;;;;;17.40;16.40;28.70;70.20;;;;;;5011948;28;8820;-88
2022/01/27 07:05:04;;;;;;;;;19.40;17.60;28.70;71.20;;;;;;5021584;28;8776;-94
2022/01/27 07:07:31;;;;;;;;;12.80;12.00;28.60;70.30;;;;;;5021536;28;9416;-90
2022/01/27 07:09:57;;;;;;;;;19.50;16.75;28.70;71.30;;;;;;5022387;28;8895;-90
2022/01/27 07:12:24;;;;;;;;;13.25;13.25;28.80;70.40;;;;;;5020791;28;8771;-91
2022/01/27 07:14:53;;;;;;;;;18.50;16.00;28.80;70.40;;;;;;5020484;28;8822;-92
2022/01/27 07:17:21;;;;;;;;;17.50;16.50;28.80;69.40;;;;;;5021073;28;8815;-93
2022/01/27 07:19:48;;;;;;;;;23.25;20.75;28.70;69.70;;;;;;5021996;28;8807;-94
2022/01/27 07:22:15;;;;;;;;;22.00;18.50;28.80;69.60;;;;;;5023407;28;8764;-90
2022/01/27 07:24:42;;;;;;;;;21.75;16.75;28.70;70.70;;;;;;5022440;28;8752;-88
2022/01/27 07:27:09;;;;;;;;;20.25;17.75;28.80;68.90;;;;;;5004397;28;8891;-89
2022/01/27 07:29:36;;;;;;;;;20.50;17.50;28.70;71.50;;;;;;5037562;28;8787;-91
2022/01/27 07:32:03;;;;;;;;;19.40;18.60;28.60;68.90;;;;;;5006727;28;8784;-91
2022/01/27 07:34:30;;;;;;;;;18.20;18.20;28.50;70.20;;;;;;5008130;28;8763;-90
2022/01/27 07:36:59;;;;;;;;;21.00;17.75;28.50;71.10;;;;;;5023202;28;8772;-87
2022/01/27 07:39:27;;;;;;;;;17.80;17.00;28.70;69.70;;;;;;5022425;28;8764;-92
2022/01/27 07:41:57;;;;;;;;;17.00;16.00;28.90;68.90;;;;;;5040908;28;8772;-92
2022/01/27 07:44:24;;;;;;;;;23.40;19.80;28.80;67.70;;;;;;5043601;28;8834;-92
2022/01/27 07:46:51;;;;;;;;;22.40;18.60;28.70;68.00;;;;;;5041546;28;8748;-89
2022/01/27 07:49:18;;;;;;;;;3.60;3.00;28.80;67.60;;;;;;5021267;28;8859;-91
2022/01/27 07:51:45;;;;;;;;;17.50;16.00;28.70;68.20;;;;;;5027719;28;8768;-90
2022/01/27 07:54:12;;;;;;;;;20.75;20.50;28.70;69.80;;;;;;5020264;28;8752;-91
2022/01/27 07:56:39;;;;;;;;;22.00;19.00;28.70;69.30;;;;;;5021410;28;8799;-91
2022/01/27 07:59:05;;;;;;;;;22.00;18.25;28.90;69.00;;;;;;5022137;28;8748;-89
2022/01/27 08:01:32;;;;;;;;;18.75;16.75;28.90;68.90;;;;;;5020423;28;8800;-90
2022/01/27 08:03:59;;;;;;;;;22.50;20.25;28.90;69.50;;;;;;5021413;28;9361;-92
2022/01/27 08:06:26;;;;;;;;;20.50;19.50;28.80;69.20;;;;;;5019160;28;8764;-90
2022/01/27 08:08:55;;;;;;;;;22.80;20.80;28.80;69.50;;;;;;5020348;28;8732;-91
2022/01/27 08:11:22;;;;;;;;;22.25;20.25;28.90;69.00;;;;;;5021362;28;8729;-95
2022/01/27 08:13:49;;;;;;;;;24.00;22.00;28.90;69.50;;;;;;5023519;28;8803;-93
2022/01/27 08:16:16;;;;;;;;;21.00;18.75;28.80;69.70;;;;;;5024557;28;8847;-93
2022/01/27 08:18:43;;;;;;;;;23.75;21.00;28.80;69.20;;;;;;5022810;28;8862;-93
2022/01/27 08:21:13;;;;;;;;;23.50;21.50;28.80;69.00;;;;;;5039335;28;8788;-93
2022/01/27 08:23:42;;;;;;;;;26.00;17.00;28.90;69.20;;;;;;5023756;28;8784;-93
2022/01/27 08:26:12;;;;;;;;;21.75;18.50;28.90;67.90;;;;;;5022909;28;8772;-90
2022/01/27 08:28:57;;;;;;;;;23.75;22.50;28.90;68.20;;;;;;5039643;28;8784;-95
2022/01/27 08:31:32;;;;;;;;;16.00;14.50;29.10;67.70;;;;;;5026238;28;8716;-92
2022/01/27 08:34:03;;;;;;;;;17.50;16.00;28.80;66.00;;;;;;5019813;28;8754;-91
2022/01/27 08:36:30;;;;;;;;;21.25;19.75;28.90;68.00;;;;;;5050460;28;8867;-92
2022/01/27 08:38:57;;;;;;;;;24.00;18.25;29.20;67.60;;;;;;5038944;28;8838;-94
2022/01/27 08:41:36;;;;;;;;;23.00;18.50;29.50;67.40;;;;;;5038783;28;8791;-93
2022/01/27 08:44:03;;;;;;;;;43.00;32.50;29.80;65.20;;;;;;5038974;28;8957;-92
2022/01/27 08:46:30;;;;;;;;;31.00;23.75;29.30;68.10;;;;;;5039136;28;8717;-90
2022/01/27 08:48:56;;;;;;;;;18.50;17.50;29.20;69.20;;;;;;5039972;28;8724;-90
2022/01/27 08:51:23;;;;;;;;;19.75;17.75;29.30;68.80;;;;;;5033623;28;9464;-90
2022/01/27 08:53:50;;;;;;;;;32.75;28.50;29.80;67.60;;;;;;5038438;28;8740;-91
2022/01/27 08:56:17;;;;;;;;;49.00;39.75;29.80;66.90;;;;;;5038366;28;8803;-93
2022/01/27 08:58:44;;;;;;;;;57.50;45.50;29.90;66.00;;;;;;5039815;28;8804;-93
2022/01/27 09:01:10;;;;;;;;;54.00;39.50;29.60;65.70;;;;;;5040389;28;8780;-94
2022/01/27 09:03:38;;;;;;;;;65.25;48.25;29.60;64.00;;;;;;5039177;28;8796;-95
2022/01/27 09:06:04;;;;;;;;;74.00;55.00;29.50;64.70;;;;;;5040377;28;8890;-92
2022/01/27 09:08:31;;;;;;;;;19.50;17.75;29.40;64.50;;;;;;5022276;28;8780;-92
2022/01/27 09:10:58;;;;;;;;;23.00;20.00;29.70;64.20;;;;;;5038712;28;8792;-93
2022/01/27 09:13:25;;;;;;;;;47.25;37.75;29.90;65.00;;;;;;5038723;28;8779;-91
2022/01/27 09:15:51;;;;;;;;;63.00;46.25;29.60;63.70;;;;;;5024279;28;8764;-94
2022/01/27 09:18:18;;;;;;;;;43.75;36.00;29.30;63.60;;;;;;5056484;28;8887;-94
2022/01/27 09:20:45;;;;;;;;;20.75;19.50;29.50;64.20;;;;;;5044234;28;8772;-94
2022/01/27 09:23:15;;;;;;;;;21.00;17.50;29.30;67.50;;;;;;5038302;28;8790;-92
2022/01/27 09:25:44;;;;;;;;;20.00;18.75;29.40;69.30;;;;;;5054094;28;8745;-92
2022/01/27 09:28:12;;;;;;;;;22.25;19.75;30.20;62.60;;;;;;5038823;28;8757;-93
2022/01/27 09:30:39;;;;;;;;;25.50;21.75;30.40;64.00;;;;;;5039417;28;10253;-94
2022/01/27 09:33:06;;;;;;;;;19.00;17.75;30.00;66.40;;;;;;5038968;28;8761;-95
2022/01/27 09:35:33;;;;;;;;;21.50;18.75;29.50;68.70;;;;;;5055705;28;9436;-94
2022/01/27 09:38:00;;;;;;;;;23.25;19.00;29.20;66.60;;;;;;5023101;28;8792;-95
2022/01/27 09:40:28;;;;;;;;;22.50;19.00;29.20;63.20;;;;;;5023709;28;8743;-94
2022/01/27 09:42:56;;;;;;;;;21.75;17.25;29.20;66.00;;;;;;5039746;28;8775;-94
2022/01/27 09:45:25;;;;;;;;;45.75;32.00;29.00;67.10;;;;;;5040111;28;8768;-94
2022/01/27 09:47:56;;;;;;;;;15.75;11.75;28.80;67.60;;;;;;5038442;28;8776;-86
2022/01/27 09:53:12;;;;;;;;;20.33;18.33;29.00;66.60;;;;;;5022596;28;8840;-85
2022/01/27 09:55:39;;;;;;;;;14.50;12.50;28.70;68.10;;;;;;5020544;28;8800;-86
2022/01/27 09:58:06;;;;;;;;;18.00;17.50;28.70;68.80;;;;;;5020705;28;8796;-86
2022/01/27 10:00:33;;;;;;;;;20.50;18.50;28.80;70.20;;;;;;5036279;28;9515;-86
2022/01/27 10:03:08;;;;;;;;;16.25;14.75;28.80;71.10;;;;;;5019637;28;8803;-86
2022/01/27 10:05:35;;;;;;;;;20.00;17.25;28.80;69.90;;;;;;5037296;28;8842;-86
2022/01/27 10:08:11;;;;;;;;;20.25;20.00;28.80;69.80;;;;;;5039634;28;8777;-86
2022/01/27 10:10:56;;;;;;;;;15.50;14.75;28.80;69.70;;;;;;5057037;28;8765;-87
2022/01/27 10:13:37;;;;;;;;;19.75;15.00;28.80;68.60;;;;;;5032641;28;8739;-86
2022/01/27 10:16:04;;;;;;;;;20.20;18.00;28.80;69.00;;;;;;5040577;28;9425;-87
2022/01/27 10:18:35;;;;;;;;;16.40;16.00;28.70;69.80;;;;;;5022939;28;8809;-87
2022/01/27 10:21:08;;;;;;;;;18.80;17.40;28.70;69.10;;;;;;5056247;28;9437;-87
2022/01/27 10:23:37;;;;;;;;;18.00;17.50;28.60;70.70;;;;;;5039198;28;8781;-86
2022/01/27 10:26:15;;;;;;;;;27.00;21.50;28.60;68.60;;;;;;5039320;28;8774;-86
2022/01/27 10:29:05;;;;;;;;;18.75;18.50;28.50;67.20;;;;;;5039497;28;8746;-86
2022/01/27 10:31:32;;;;;;;;;27.00;18.75;28.50;67.50;;;;;;5058828;28;8734;-87
2022/01/27 10:34:01;;;;;;;;;20.75;16.50;28.50;67.70;;;;;;5055558;28;8777;-86
2022/01/27 10:36:36;;;;;;;;;16.50;14.00;28.40;69.40;;;;;;5051990;28;8805;-86
2022/01/27 10:39:14;;;;;;;;;26.75;21.00;28.30;69.80;;;;;;5052810;28;8783;-87
2022/01/27 10:42:06;;;;;;;;;25.50;21.50;28.30;69.40;;;;;;5052967;28;8756;-87
2022/01/27 10:44:37;;;;;;;;;32.75;27.50;28.20;69.40;;;;;;5036099;28;8780;-87
2022/01/27 10:47:15;;;;;;;;;23.00;22.75;28.30;69.60;;;;;;5036143;28;8768;-86
2022/01/27 10:49:48;;;;;;;;;21.00;19.00;28.20;69.70;;;;;;5035641;28;8794;-86
2022/01/27 10:52:32;;;;;;;;;23.00;20.00;28.10;70.20;;;;;;5056030;28;8770;-86
2022/01/27 10:55:00;;;;;;;;;26.75;23.50;27.90;72.00;;;;;;5056085;28;8789;-86
2022/01/27 10:57:27;;;;;;;;;28.75;23.50;27.70;70.80;;;;;;5038046;28;8773;-87
2022/01/27 11:00:11;;;;;;;;;32.00;24.75;27.60;71.80;;;;;;5038886;28;8769;-86
2022/01/27 11:03:03;;;;;;;;;29.50;25.75;27.40;73.00;;;;;;5038814;28;8881;-86
2022/01/27 11:05:31;;;;;;;;;29.00;24.50;27.20;72.80;;;;;;5029794;28;8781;-87
2022/01/27 11:07:59;;;;;;;;;30.25;26.75;27.10;73.20;;;;;;5018907;28;8756;-87
2022/01/27 11:10:25;;;;;;;;;34.25;29.75;27.00;73.20;;;;;;5002646;28;9117;-86
2022/01/27 11:12:52;;;;;;;;;32.00;24.00;26.90;73.50;;;;;;5020478;28;8867;-87
2022/01/27 11:15:20;;;;;;;;;27.50;26.00;26.80;74.10;;;;;;5003101;28;8756;-87
2022/01/27 11:17:48;;;;;;;;;31.00;26.75;26.70;79.30;;;;;;5019015;28;8794;-87
2022/01/27 11:20:33;;;;;;;;;56.50;45.25;26.60;87.10;;;;;;5003250;28;8792;-87
2022/01/27 11:23:23;;;;;;;;;66.00;51.40;26.50;86.90;;;;;;5021665;28;8776;-87
2022/01/27 11:25:52;;;;;;;;;67.60;52.20;26.30;83.10;;;;;;5021933;28;8761;-87
2022/01/27 11:28:22;;;;;;;;;53.00;43.50;26.10;83.60;;;;;;5020524;28;8760;-87
2022/01/27 11:30:51;;;;;;;;;51.75;41.50;25.90;86.30;;;;;;5052248;28;9471;-87
2022/01/27 11:33:18;;;;;;;;;18.00;12.50;25.80;87.10;;;;;;5036448;28;8802;-87
2022/01/27 11:35:45;;;;;;;;;46.00;33.75;25.60;87.60;;;;;;5037560;28;8781;-87
2022/01/27 11:38:12;;;;;;;;;72.00;56.80;25.50;86.80;;;;;;5038897;28;8766;-87
2022/01/27 11:40:43;;;;;;;;;78.60;64.80;25.40;89.60;;;;;;5054892;28;9411;-87
2022/01/27 11:43:14;;;;;;;;;67.60;51.20;25.30;91.00;;;;;;5022974;28;8754;-87
2022/01/27 11:45:44;;;;;;;;;65.20;51.00;25.20;90.70;;;;;;5055775;28;8784;-87
2022/01/27 11:48:22;;;;;;;;;56.50;44.50;25.20;92.20;;;;;;5042851;28;8850;-86
2022/01/27 11:50:58;;;;;;;;;52.25;40.00;25.20;92.30;;;;;;5059108;28;8765;-87
2022/01/27 11:53:33;;;;;;;;;46.75;37.75;25.20;93.90;;;;;;5059774;28;8785;-87
2022/01/27 11:56:07;;;;;;;;;50.25;41.00;25.10;93.30;;;;;;5059132;28;8879;-87
2022/01/27 11:58:48;;;;;;;;;57.00;45.00;24.90;93.60;;;;;;5059751;28;8770;-86
2022/01/27 12:01:31;;;;;;;;;63.00;48.80;24.50;95.90;;;;;;5059977;28;8773;-87
2022/01/27 12:04:07;;;;;;;;;75.40;59.00;24.30;95.90;;;;;;5059372;28;8786;-87
2022/01/27 12:06:35;;;;;;;;;66.40;53.00;24.30;93.90;;;;;;5048762;28;8776;-87
2022/01/27 12:09:24;;;;;;;;;68.00;50.60;24.30;92.50;;;;;;5039876;28;8784;-87
2022/01/27 12:12:21;;;;;;;;;65.40;49.20;24.40;93.40;;;;;;5040093;28;8764;-87
2022/01/27 12:15:02;;;;;;;;;66.20;49.00;24.40;95.10;;;;;;5009441;28;8756;-86
2022/01/27 12:17:29;;;;;;;;;64.00;48.20;24.30;94.90;;;;;;5013535;28;8799;-87
2022/01/27 12:19:59;;;;;;;;;65.00;49.40;24.20;95.30;;;;;;5018949;28;8826;-87
2022/01/27 12:22:51;;;;;;;;;69.40;51.20;24.20;96.90;;;;;;5019500;28;8759;-87
2022/01/27 12:25:18;;;;;;;;;66.40;49.00;24.10;98.00;;;;;;5020770;28;8786;-87
2022/01/27 12:27:52;;;;;;;;;69.20;52.40;24.00;98.40;;;;;;5003025;28;8771;-87
2022/01/27 12:30:19;;;;;;;;;70.60;56.00;24.00;98.50;;;;;;5002532;28;8767;-87
2022/01/27 12:32:46;;;;;;;;;77.00;61.80;24.00;98.10;;;;;;5002539;28;8759;-87
2022/01/27 12:35:16;;;;;;;;;79.00;61.00;23.90;97.90;;;;;;4985669;28;9037;-86
2022/01/27 12:37:45;;;;;;;;;70.40;53.00;23.80;98.20;;;;;;5002125;28;8786;-88
2022/01/27 12:40:30;;;;;;;;;70.00;55.20;23.40;99.90;;;;;;5018781;28;8758;-86
2022/01/27 12:43:01;;;;;;;;;76.00;56.00;23.30;99.60;;;;;;5034779;28;8790;-86
2022/01/27 12:45:30;;;;;;;;;75.40;56.80;23.30;99.70;;;;;;5018098;28;8759;-86
2022/01/27 12:48:08;;;;;;;;;76.40;61.00;23.30;99.70;;;;;;5034524;28;8774;-86
2022/01/27 12:50:37;;;;;;;;;67.40;51.60;23.20;99.40;;;;;;5035500;28;8777;-86
2022/01/27 12:53:09;;;;;;;;;77.00;59.80;23.20;99.50;;;;;;5039478;28;8780;-86
2022/01/27 12:55:38;;;;;;;;;108.80;91.60;23.20;99.90;;;;;;5043365;28;8789;-86
2022/01/27 12:58:05;;;;;;;;;322.25;241.75;23.10;99.90;;;;;;5059219;28;8790;-86
2022/01/27 13:00:43;;;;;;;;;269.50;223.25;23.10;99.90;;;;;;5058742;28;11301;-85
2022/01/27 13:03:10;;;;;;;;;170.25;139.25;22.90;99.90;;;;;;5059893;28;11516;-86
2022/01/27 13:05:44;;;;;;;;;116.40;98.20;22.90;99.90;;;;;;5051166;28;8798;-86
2022/01/27 13:08:12;;;;;;;;;117.60;93.40;22.80;99.90;;;;;;5008669;28;8826;-86
2022/01/27 13:10:45;;;;;;;;;119.80;102.40;22.70;99.90;;;;;;5040174;28;8772;-86
2022/01/27 13:13:16;;;;;;;;;99.40;85.40;22.80;99.90;;;;;;5025354;28;8744;-87
2022/01/27 13:15:46;;;;;;;;;95.00;81.20;22.80;99.90;;;;;;5006554;28;8815;-87
2022/01/27 13:18:26;;;;;;;;;89.00;72.80;22.80;99.90;;;;;;4989661;28;8810;-87
2022/01/27 13:21:20;;;;;;;;;93.40;80.40;22.70;99.90;;;;;;5017184;28;8769;-86
2022/01/27 13:23:48;;;;;;;;;91.60;77.40;22.50;99.90;;;;;;5060891;28;8765;-88
2022/01/27 13:26:18;;;;;;;;;83.40;69.20;22.50;99.90;;;;;;5060920;28;8866;-86
2022/01/27 13:28:50;;;;;;;;;83.20;70.40;22.40;99.90;;;;;;5043925;28;8791;-87
2022/01/27 13:31:19;;;;;;;;;82.80;68.40;22.20;99.90;;;;;;5060230;28;8868;-87
2022/01/27 13:33:47;;;;;;;;;77.00;57.00;22.00;99.90;;;;;;5058981;28;8785;-88
2022/01/27 13:36:25;;;;;;;;;80.80;63.00;22.00;99.90;;;;;;5058235;28;8769;-88